createdAt,value
2019-03-03T00:29:35.863Z,87.60
2019-03-03T00:59:58.090Z,88.10
2019-03-03T01:30:02.969Z,88.40
2019-03-03T02:31:10.517Z,89.10
2019-03-03T03:01:15.782Z,88.90
2019-03-03T03:31:39.381Z,88.90
2019-03-03T04:02:01.243Z,88.60
2019-03-03T04:32:15.318Z,88.20
2019-03-03T05:02:23.799Z,87.90
2019-03-03T05:32:27.512Z,88.00
2019-03-03T06:02:31.229Z,89.50
2019-03-03T06:32:34.967Z,91.60
2019-03-03T07:02:39.049Z,92.50
2019-03-03T07:32:53.375Z,92.70
2019-03-03T08:02:57.436Z,91.00
2019-03-03T08:33:01.127Z,89.10
2019-03-03T09:03:09.491Z,84.60
2019-03-03T09:33:23.564Z,82.70
2019-03-03T10:03:28.901Z,72.80
2019-03-03T10:33:34.242Z,71.30
2019-03-03T11:03:42.221Z,68.90
2019-03-03T11:33:47.561Z,66.90
2019-03-03T12:03:52.894Z,66.00
2019-03-03T12:34:01.152Z,67.20
2019-03-03T13:04:09.594Z,67.40
2019-03-03T13:34:31.105Z,66.00
2019-03-03T14:04:34.877Z,66.20
2019-03-03T14:34:38.614Z,64.70
2019-03-03T15:04:42.430Z,65.70
2019-03-03T15:34:46.098Z,66.80
2019-03-03T16:04:49.839Z,67.10
2019-03-03T16:34:53.554Z,68.30
2019-03-03T17:04:57.249Z,68.40
2019-03-03T17:35:00.972Z,73.00
2019-03-03T18:05:05.373Z,74.60
2019-03-03T18:35:09.067Z,75.70
2019-03-03T19:05:12.798Z,74.30
2019-03-03T19:35:16.515Z,73.40
2019-03-03T20:05:20.260Z,74.20
2019-03-03T20:35:25.064Z,75.50
2019-03-03T21:05:28.780Z,73.30
2019-03-03T21:35:32.507Z,74.20
2019-03-03T22:05:36.275Z,75.60
2019-03-03T22:35:40.149Z,76.50
2019-03-03T23:05:53.000Z,76.90
2019-03-03T23:35:56.836Z,78.00
